Time;durP1;ratioP1;P1;durP2;ratioP2;P2;SDS_P1;SDS_P2;PMS_P1;PMS_P2;Temp;Humidity;BMP_temperature;BMP_pressure;BME280_temperature;BME280_humidity;BME280_pressure;Samples;Min_cycle;Max_cycle;Signal;HPM_P1;HPM_P2
2022/07/31 00:01:12;;;;;;;4.70;3.70;;;18.90;99.90;;;;;;7394129;19;20094;-84
2022/07/31 00:03:40;;;;;;;7.68;4.00;;;18.80;99.90;;;;;;7396343;19;20014;-84
2022/07/31 00:06:07;;;;;;;6.80;4.10;;;18.70;99.90;;;;;;7395489;19;20010;-84
2022/07/31 00:08:33;;;;;;;4.70;4.20;;;18.70;99.90;;;;;;7395267;19;20014;-84
2022/07/31 00:10:59;;;;;;;4.50;3.10;;;18.60;99.90;;;;;;7395322;19;20412;-84
2022/07/31 00:13:25;;;;;;;7.20;4.53;;;18.60;99.90;;;;;;7395147;19;20483;-84
2022/07/31 00:15:51;;;;;;;5.93;3.75;;;18.60;99.90;;;;;;7395477;19;20007;-84
2022/07/31 00:18:17;;;;;;;6.75;4.25;;;18.60;99.90;;;;;;7395815;19;20021;-84
2022/07/31 00:20:43;;;;;;;5.47;4.13;;;18.60;99.90;;;;;;7392377;19;20070;-84
2022/07/31 00:23:10;;;;;;;6.03;4.22;;;18.50;99.90;;;;;;7395313;19;20014;-84
2022/07/31 00:25:36;;;;;;;9.13;4.00;;;18.50;99.90;;;;;;7392904;19;20007;-84
2022/07/31 00:28:03;;;;;;;6.80;3.90;;;18.40;99.90;;;;;;7394846;19;20027;-84
2022/07/31 00:30:29;;;;;;;10.88;4.00;;;18.40;99.90;;;;;;7394685;19;20018;-84
2022/07/31 00:32:55;;;;;;;5.53;4.10;;;18.40;99.90;;;;;;7393513;19;20013;-85
2022/07/31 00:35:21;;;;;;;11.30;4.35;;;18.40;99.90;;;;;;7394589;19;20341;-84
2022/07/31 00:37:47;;;;;;;8.20;4.78;;;18.40;99.90;;;;;;7393121;19;20021;-83
2022/07/31 00:40:15;;;;;;;8.82;4.30;;;18.30;99.90;;;;;;7395053;19;20205;-84
2022/07/31 00:42:41;;;;;;;5.55;3.92;;;18.40;99.90;;;;;;7394068;19;20011;-84
2022/07/31 00:45:09;;;;;;;6.10;3.90;;;18.40;99.90;;;;;;7393010;19;20021;-84
2022/07/31 00:47:35;;;;;;;6.70;3.63;;;18.40;99.90;;;;;;7394504;19;20015;-84
2022/07/31 00:50:01;;;;;;;8.70;4.65;;;18.40;99.90;;;;;;7393505;19;20021;-84
2022/07/31 00:52:26;;;;;;;8.77;4.57;;;18.40;99.90;;;;;;7394028;19;20479;-84
2022/07/31 00:54:52;;;;;;;6.78;4.22;;;18.40;99.90;;;;;;7393499;19;20023;-84
2022/07/31 00:57:18;;;;;;;7.93;4.50;;;18.40;99.90;;;;;;7392232;19;20011;-83
2022/07/31 00:59:44;;;;;;;6.88;4.45;;;18.40;99.90;;;;;;7394258;19;20422;-84
2022/07/31 01:02:10;;;;;;;5.05;4.40;;;18.40;99.90;;;;;;7392319;19;20550;-84
2022/07/31 01:04:36;;;;;;;5.85;4.30;;;18.30;99.90;;;;;;7393157;19;20011;-84
2022/07/31 01:07:02;;;;;;;6.68;4.55;;;18.30;99.90;;;;;;7392326;19;20024;-84
2022/07/31 01:09:28;;;;;;;6.03;4.65;;;18.30;99.90;;;;;;7393564;19;20038;-83
2022/07/31 01:12:24;;;;;;;7.07;4.95;;;18.30;99.90;;;;;;7393362;19;20381;-84
2022/07/31 01:14:56;;;;;;;5.78;4.45;;;18.30;99.90;;;;;;7393249;19;20026;-84
2022/07/31 01:17:25;;;;;;;6.43;4.20;;;18.20;99.90;;;;;;7395200;19;20015;-83
2022/07/31 01:19:51;;;;;;;6.90;4.28;;;18.20;99.90;;;;;;7392866;19;20019;-84
2022/07/31 01:22:59;;;;;;;7.65;4.13;;;18.10;99.90;;;;;;7393240;19;20015;-84
2022/07/31 01:25:38;;;;;;;7.38;4.00;;;18.10;99.90;;;;;;7391079;19;20021;-83
2022/07/31 01:28:42;;;;;;;6.55;4.35;;;18.10;99.90;;;;;;7393065;19;20017;-83
2022/07/31 01:31:14;;;;;;;5.40;4.13;;;18.00;99.90;;;;;;7391715;19;20406;-84
2022/07/31 01:33:56;;;;;;;7.32;4.53;;;18.00;99.90;;;;;;7393389;19;20014;-83
2022/07/31 01:36:33;;;;;;;5.27;4.17;;;17.90;99.90;;;;;;7392978;19;20355;-84
2022/07/31 01:39:00;;;;;;;4.75;4.20;;;17.90;99.90;;;;;;7391272;19;20284;-83
2022/07/31 01:41:31;;;;;;;4.75;4.15;;;17.80;99.90;;;;;;7393110;19;20014;-84
2022/07/31 01:43:58;;;;;;;5.50;4.30;;;17.80;99.90;;;;;;7389478;19;20356;-84
2022/07/31 01:46:26;;;;;;;8.63;4.72;;;17.80;99.90;;;;;;7392710;19;20418;-84
2022/07/31 01:48:54;;;;;;;13.43;4.93;;;17.80;99.90;;;;;;7392860;19;20070;-83
2022/07/31 01:51:23;;;;;;;6.75;4.90;;;17.80;99.90;;;;;;7392355;19;20386;-84
2022/07/31 01:53:51;;;;;;;6.05;4.85;;;17.80;99.90;;;;;;7392222;19;20356;-84
2022/07/31 01:56:19;;;;;;;7.22;4.88;;;17.70;99.90;;;;;;7392096;19;20014;-84
2022/07/31 01:58:47;;;;;;;6.07;4.78;;;17.70;99.90;;;;;;7392107;19;20018;-83
2022/07/31 02:01:14;;;;;;;5.68;4.45;;;17.60;99.90;;;;;;7390523;19;20341;-83
2022/07/31 02:03:41;;;;;;;10.07;5.32;;;17.60;99.90;;;;;;7397843;19;20006;-84
2022/07/31 02:06:08;;;;;;;5.60;5.10;;;17.50;99.90;;;;;;7399431;19;20034;-83
2022/07/31 02:08:35;;;;;;;7.35;6.32;;;17.50;99.90;;;;;;7397791;19;20010;-83
2022/07/31 02:11:02;;;;;;;8.93;6.28;;;17.40;99.90;;;;;;7399222;19;20444;-84
2022/07/31 02:13:28;;;;;;;7.35;5.80;;;17.40;99.90;;;;;;7399793;19;20011;-84
2022/07/31 02:15:56;;;;;;;7.50;6.03;;;17.40;99.90;;;;;;7400757;19;20007;-84
2022/07/31 02:18:25;;;;;;;8.15;5.65;;;17.30;99.90;;;;;;7397884;19;20018;-84
2022/07/31 02:20:54;;;;;;;8.90;5.90;;;17.30;99.90;;;;;;7396956;19;20011;-84
2022/07/31 02:23:20;;;;;;;7.88;5.22;;;17.30;99.90;;;;;;7399402;19;20021;-84
2022/07/31 02:25:47;;;;;;;8.18;5.20;;;17.30;99.90;;;;;;7394532;19;20021;-84
2022/07/31 02:28:19;;;;;;;8.80;5.78;;;17.30;99.90;;;;;;7399047;19;20494;-84
2022/07/31 02:30:47;;;;;;;5.88;5.35;;;17.30;99.90;;;;;;7398825;19;20483;-84
2022/07/31 02:33:17;;;;;;;6.72;5.93;;;17.30;99.90;;;;;;7398505;19;20010;-84
2022/07/31 02:35:46;;;;;;;10.20;5.70;;;17.20;99.90;;;;;;7396752;19;20094;-84
2022/07/31 02:38:18;;;;;;;8.05;5.10;;;17.30;99.90;;;;;;7398655;19;20029;-84
2022/07/31 02:40:44;;;;;;;6.50;5.00;;;17.30;99.90;;;;;;7398479;19;20011;-83
2022/07/31 02:43:12;;;;;;;5.68;4.82;;;17.30;99.90;;;;;;7395302;19;20006;-83
2022/07/31 02:45:39;;;;;;;8.75;5.20;;;17.30;99.90;;;;;;7395863;19;20471;-84
2022/07/31 02:48:06;;;;;;;6.05;4.40;;;17.30;99.90;;;;;;7398041;19;20354;-83
2022/07/31 02:50:32;;;;;;;7.30;5.18;;;17.40;99.90;;;;;;7399496;19;20022;-84
2022/07/31 02:52:58;;;;;;;8.13;4.85;;;17.40;99.90;;;;;;7396948;19;20649;-84
2022/07/31 02:55:24;;;;;;;5.60;4.65;;;17.40;99.90;;;;;;7397476;19;20055;-84
2022/07/31 02:57:50;;;;;;;9.15;5.03;;;17.40;99.90;;;;;;7398255;19;20066;-84
2022/07/31 03:00:25;;;;;;;6.68;4.72;;;17.50;99.90;;;;;;7397114;19;20701;-84
2022/07/31 03:02:54;;;;;;;7.68;4.80;;;17.50;99.90;;;;;;7396748;19;20037;-84
2022/07/31 03:05:21;;;;;;;5.03;3.85;;;17.50;99.90;;;;;;7396259;19;20094;-84
2022/07/31 03:07:47;;;;;;;5.38;4.72;;;17.40;99.90;;;;;;7398235;19;20011;-84
2022/07/31 03:10:14;;;;;;;6.30;4.80;;;17.50;99.90;;;;;;7397576;19;20006;-84
2022/07/31 03:12:46;;;;;;;7.22;4.00;;;17.40;99.90;;;;;;7397830;19;20011;-84
2022/07/31 03:15:15;;;;;;;6.13;4.60;;;17.40;99.90;;;;;;7399894;19;20085;-84
2022/07/31 03:17:42;;;;;;;5.20;4.47;;;17.40;99.90;;;;;;7397300;19;20356;-84
2022/07/31 03:20:09;;;;;;;7.43;4.70;;;17.40;99.90;;;;;;7394231;19;20495;-83
2022/07/31 03:22:36;;;;;;;7.63;4.35;;;17.40;99.90;;;;;;7397023;19;20014;-84
2022/07/31 03:25:03;;;;;;;5.97;4.38;;;17.40;99.90;;;;;;7393464;19;20324;-84
2022/07/31 03:27:30;;;;;;;6.47;4.20;;;17.40;99.90;;;;;;7395557;19;20399;-84
2022/07/31 03:29:55;;;;;;;7.03;4.40;;;17.40;99.90;;;;;;7395264;19;20475;-84
2022/07/31 03:32:21;;;;;;;4.97;3.28;;;17.40;99.90;;;;;;7396745;19;20013;-84
2022/07/31 03:34:47;;;;;;;7.28;4.80;;;17.40;99.90;;;;;;7395317;19;20010;-84
2022/07/31 03:37:13;;;;;;;5.45;4.65;;;17.40;99.90;;;;;;7395018;19;20358;-84
2022/07/31 03:39:39;;;;;;;6.07;4.40;;;17.40;99.90;;;;;;7396145;19;20356;-84
2022/07/31 03:42:09;;;;;;;6.07;4.90;;;17.40;99.90;;;;;;7394122;19;20014;-84
2022/07/31 03:44:36;;;;;;;6.22;4.53;;;17.40;99.90;;;;;;7395651;19;20019;-84
2022/07/31 03:47:03;;;;;;;7.75;4.30;;;17.30;99.90;;;;;;7394442;19;20015;-83
2022/07/31 03:49:30;;;;;;;4.78;3.95;;;17.30;99.90;;;;;;7394711;19;20011;-84
2022/07/31 03:51:56;;;;;;;6.22;4.40;;;17.30;99.90;;;;;;7395893;19;20014;-83
2022/07/31 03:54:22;;;;;;;6.53;4.25;;;17.30;99.90;;;;;;7395913;19;20014;-83
2022/07/31 03:56:50;;;;;;;7.10;4.65;;;17.30;99.90;;;;;;7394033;19;20033;-84
2022/07/31 03:59:17;;;;;;;5.32;4.60;;;17.20;99.90;;;;;;7394196;19;20495;-84
2022/07/31 04:01:43;;;;;;;6.85;4.45;;;17.20;99.90;;;;;;7395804;19;20035;-84
2022/07/31 04:04:10;;;;;;;8.77;4.82;;;17.20;99.90;;;;;;7395194;19;20038;-84
2022/07/31 04:06:36;;;;;;;5.55;4.00;;;17.20;99.90;;;;;;7393855;19;20023;-83
2022/07/31 04:09:02;;;;;;;5.65;4.45;;;17.20;99.90;;;;;;7393682;19;20495;-84
2022/07/31 04:11:28;;;;;;;8.52;4.63;;;17.20;99.90;;;;;;7395756;19;20025;-84
2022/07/31 04:13:54;;;;;;;4.18;3.78;;;17.20;99.90;;;;;;7397868;19;20022;-84
2022/07/31 04:16:20;;;;;;;5.07;3.85;;;17.20;99.90;;;;;;7395306;19;20010;-84
2022/07/31 04:18:46;;;;;;;9.00;4.45;;;17.30;99.90;;;;;;7395151;19;20027;-85
2022/07/31 04:21:12;;;;;;;6.05;4.32;;;17.30;99.90;;;;;;7393662;19;20011;-84
2022/07/31 04:23:38;;;;;;;5.78;4.78;;;17.30;99.90;;;;;;7394763;19;20109;-84
2022/07/31 04:26:04;;;;;;;5.78;4.18;;;17.40;99.90;;;;;;7391310;19;20010;-84
2022/07/31 04:28:31;;;;;;;6.03;4.57;;;17.50;99.90;;;;;;7394883;19;20017;-83
2022/07/31 04:30:57;;;;;;;6.88;4.30;;;17.40;99.90;;;;;;7394853;19;20082;-83
2022/07/31 04:33:22;;;;;;;6.53;4.60;;;17.40;99.90;;;;;;7395110;19;20014;-84
2022/07/31 04:35:48;;;;;;;6.07;4.75;;;17.40;99.90;;;;;;7393125;19;20491;-84
2022/07/31 04:38:15;;;;;;;5.95;4.35;;;17.40;99.90;;;;;;7394865;19;20019;-84
2022/07/31 04:40:42;;;;;;;7.15;4.30;;;17.30;99.90;;;;;;7394302;19;20011;-84
2022/07/31 04:43:07;;;;;;;8.38;4.80;;;17.40;99.90;;;;;;7393389;19;20013;-83
2022/07/31 04:45:33;;;;;;;8.93;4.22;;;17.40;99.90;;;;;;7393176;19;20015;-84
2022/07/31 04:47:59;;;;;;;9.52;4.47;;;17.40;99.90;;;;;;7394347;19;20014;-84
2022/07/31 04:50:25;;;;;;;7.05;4.40;;;17.40;99.90;;;;;;7394216;19;20362;-84
2022/07/31 04:52:51;;;;;;;7.70;4.78;;;17.40;99.90;;;;;;7393889;19;20360;-84
2022/07/31 04:55:17;;;;;;;7.13;4.70;;;17.50;99.90;;;;;;7393382;19;20006;-84
2022/07/31 04:57:43;;;;;;;5.55;4.30;;;17.50;99.90;;;;;;7393987;19;20085;-84
2022/07/31 05:00:10;;;;;;;5.55;4.20;;;17.60;99.90;;;;;;7394358;19;20038;-84
2022/07/31 05:02:36;;;;;;;3.80;2.80;;;17.70;99.90;;;;;;7394013;19;20583;-83
2022/07/31 05:05:02;;;;;;;5.03;4.50;;;17.90;99.90;;;;;;7392557;19;20078;-84
2022/07/31 05:07:28;;;;;;;9.93;4.60;;;18.00;99.90;;;;;;7393492;19;20384;-84
2022/07/31 05:09:55;;;;;;;9.52;4.47;;;18.10;99.90;;;;;;7391999;19;20007;-83
2022/07/31 05:12:21;;;;;;;5.82;4.97;;;18.30;99.90;;;;;;7394463;19;20103;-83
2022/07/31 05:14:46;;;;;;;10.52;4.93;;;18.40;99.90;;;;;;7393808;19;20022;-86
2022/07/31 05:17:12;;;;;;;10.15;4.75;;;18.60;99.90;;;;;;7393297;19;20344;-84
2022/07/31 05:19:38;;;;;;;7.47;4.70;;;18.80;99.90;;;;;;7393066;19;20014;-84
2022/07/31 05:22:04;;;;;;;5.10;3.33;;;18.80;99.90;;;;;;7393087;19;20569;-84
2022/07/31 05:24:33;;;;;;;7.28;5.07;;;18.90;99.90;;;;;;7390268;19;20015;-86
2022/07/31 05:26:59;;;;;;;6.65;5.60;;;19.00;99.90;;;;;;7393367;19;20010;-84
2022/07/31 05:29:25;;;;;;;7.13;5.43;;;18.90;99.90;;;;;;7393303;19;20017;-84
2022/07/31 05:31:51;;;;;;;7.38;5.47;;;18.90;99.90;;;;;;7393530;19;20078;-84
2022/07/31 05:34:17;;;;;;;6.55;5.57;;;18.80;99.90;;;;;;7392827;19;20381;-84
2022/07/31 05:36:43;;;;;;;7.30;4.15;;;18.80;99.90;;;;;;7392537;19;20019;-85
2022/07/31 05:39:11;;;;;;;3.22;2.40;;;18.90;99.90;;;;;;7400699;19;20014;-84
2022/07/31 05:41:37;;;;;;;4.07;3.67;;;19.00;99.90;;;;;;7400283;19;20360;-84
2022/07/31 05:44:03;;;;;;;8.43;5.55;;;19.10;99.90;;;;;;7395909;19;20100;-84
2022/07/31 05:46:29;;;;;;;7.60;5.45;;;19.30;99.90;;;;;;7399583;19;20018;-84
2022/07/31 05:48:55;;;;;;;7.50;4.63;;;19.30;99.90;;;;;;7400121;19;20017;-85
2022/07/31 05:51:21;;;;;;;7.78;5.18;;;19.30;99.90;;;;;;7400024;19;20011;-86
2022/07/31 05:53:47;;;;;;;2.65;2.15;;;19.30;99.90;;;;;;7399851;19;20342;-84
2022/07/31 05:56:13;;;;;;;6.47;5.82;;;19.40;99.90;;;;;;7397927;19;20015;-84
2022/07/31 05:58:39;;;;;;;2.63;2.33;;;19.40;99.90;;;;;;7399837;19;20352;-85
2022/07/31 06:01:05;;;;;;;8.05;6.70;;;19.50;99.90;;;;;;7400554;19;20027;-86
2022/07/31 06:03:34;;;;;;;8.38;6.13;;;19.60;99.90;;;;;;7399545;19;20405;-85
2022/07/31 06:06:02;;;;;;;10.65;6.40;;;19.60;99.90;;;;;;7396621;19;20480;-84
2022/07/31 06:08:29;;;;;;;6.53;4.50;;;19.70;99.90;;;;;;7399543;19;20016;-86
2022/07/31 06:10:55;;;;;;;4.05;3.65;;;19.80;99.90;;;;;;7397903;19;20015;-85
2022/07/31 06:13:29;;;;;;;6.43;4.72;;;19.90;99.90;;;;;;7402313;19;20015;-85
2022/07/31 06:15:55;;;;;;;8.43;6.38;;;19.90;99.90;;;;;;7399686;19;20014;-84
2022/07/31 06:18:21;;;;;;;7.00;4.85;;;20.00;99.90;;;;;;7398952;19;20016;-87
2022/07/31 06:20:47;;;;;;;6.10;4.30;;;20.00;99.90;;;;;;7397033;19;20018;-84
2022/07/31 06:23:12;;;;;;;7.05;4.70;;;20.00;99.90;;;;;;7398847;19;20007;-84
2022/07/31 06:25:38;;;;;;;8.18;5.90;;;20.00;99.90;;;;;;7396468;19;20014;-85
2022/07/31 06:28:04;;;;;;;6.25;5.65;;;20.00;99.90;;;;;;7397766;19;20010;-84
2022/07/31 06:30:31;;;;;;;7.65;5.90;;;20.00;99.90;;;;;;7398827;19;20414;-85
2022/07/31 06:32:57;;;;;;;5.25;3.42;;;20.00;99.90;;;;;;7398659;19;20531;-85
2022/07/31 06:35:23;;;;;;;8.25;5.53;;;20.00;99.90;;;;;;7397011;19;20010;-84
2022/07/31 06:37:49;;;;;;;5.05;3.33;;;20.10;99.90;;;;;;7397051;19;20014;-85
2022/07/31 06:40:15;;;;;;;7.35;4.63;;;20.10;99.90;;;;;;7396916;19;20077;-83
2022/07/31 06:42:41;;;;;;;7.82;4.35;;;20.10;99.90;;;;;;7397144;19;20114;-84
2022/07/31 06:45:07;;;;;;;3.58;3.22;;;20.10;99.90;;;;;;7395165;19;20015;-86
2022/07/31 06:47:33;;;;;;;5.10;3.15;;;20.20;99.90;;;;;;7395344;19;20011;-87
2022/07/31 06:49:59;;;;;;;9.35;5.45;;;20.40;99.90;;;;;;7397964;19;20024;-85
2022/07/31 06:52:25;;;;;;;4.85;2.67;;;20.40;99.90;;;;;;7396754;19;20074;-83
2022/07/31 06:54:51;;;;;;;3.80;2.83;;;20.40;99.90;;;;;;7397336;19;20351;-87
2022/07/31 06:57:17;;;;;;;6.30;4.93;;;20.50;99.90;;;;;;7397826;19;20017;-86
2022/07/31 06:59:42;;;;;;;7.18;4.53;;;20.50;99.90;;;;;;7397975;19;20018;-85
2022/07/31 07:02:08;;;;;;;3.65;2.45;;;20.50;99.90;;;;;;7397653;19;20015;-85
2022/07/31 07:04:34;;;;;;;4.15;2.95;;;20.60;99.90;;;;;;7395213;19;20337;-85
2022/07/31 07:07:00;;;;;;;5.40;3.63;;;20.70;99.90;;;;;;7395782;19;20029;-85
2022/07/31 07:09:26;;;;;;;3.67;3.38;;;20.80;99.90;;;;;;7397217;19;20010;-86
2022/07/31 07:11:52;;;;;;;2.60;1.92;;;20.90;99.90;;;;;;7398710;19;20017;-85
2022/07/31 07:14:17;;;;;;;5.70;3.47;;;20.90;99.90;;;;;;7396068;19;20026;-85
2022/07/31 07:16:43;;;;;;;7.00;4.07;;;21.10;99.90;;;;;;7395318;19;20010;-84
2022/07/31 07:19:09;;;;;;;6.20;4.03;;;21.10;99.90;;;;;;7396387;19;20022;-84
2022/07/31 07:21:35;;;;;;;5.97;4.20;;;21.20;99.90;;;;;;7397245;19;20511;-85
2022/07/31 07:24:01;;;;;;;5.03;3.63;;;21.40;99.90;;;;;;7394836;19;20015;-85
2022/07/31 07:26:27;;;;;;;5.07;4.57;;;21.50;99.90;;;;;;7396491;19;20018;-84
2022/07/31 07:28:52;;;;;;;5.30;3.78;;;21.60;99.90;;;;;;7395199;19;20066;-86
2022/07/31 07:31:19;;;;;;;2.40;2.00;;;21.50;99.90;;;;;;7394968;19;20075;-86
2022/07/31 07:33:46;;;;;;;6.53;4.25;;;21.60;99.90;;;;;;7396713;19;20077;-85
2022/07/31 07:36:12;;;;;;;4.05;2.40;;;21.60;99.90;;;;;;7395350;19;20027;-84
2022/07/31 07:38:38;;;;;;;3.75;2.45;;;21.50;99.90;;;;;;7395318;19;20011;-86
2022/07/31 07:41:03;;;;;;;9.77;4.18;;;21.60;99.90;;;;;;7396451;19;20364;-85
2022/07/31 07:43:29;;;;;;;4.38;2.65;;;21.60;99.90;;;;;;7393453;19;20015;-86
2022/07/31 07:45:55;;;;;;;6.57;3.70;;;21.70;99.90;;;;;;7393073;19;20014;-85
2022/07/31 07:48:21;;;;;;;4.28;2.92;;;21.80;99.90;;;;;;7395988;19;20010;-86
2022/07/31 07:50:47;;;;;;;3.97;3.20;;;21.80;99.90;;;;;;7396427;19;20011;-86
2022/07/31 07:53:13;;;;;;;5.13;1.92;;;21.70;99.90;;;;;;7395866;19;20006;-84
2022/07/31 07:55:39;;;;;;;5.80;3.70;;;21.70;99.90;;;;;;7395718;19;20014;-86
2022/07/31 07:58:05;;;;;;;6.18;3.50;;;21.80;99.90;;;;;;7395863;19;20010;-85
2022/07/31 08:00:31;;;;;;;5.18;3.47;;;21.90;99.90;;;;;;7391854;19;20025;-85
2022/07/31 08:02:57;;;;;;;4.43;3.33;;;21.90;99.90;;;;;;7395899;19;20007;-85
2022/07/31 08:05:23;;;;;;;4.82;2.72;;;22.00;99.90;;;;;;7392731;19;20030;-85
2022/07/31 08:07:48;;;;;;;3.13;2.80;;;22.00;99.90;;;;;;7393796;19;20488;-87
2022/07/31 08:10:18;;;;;;;5.20;2.58;;;22.10;99.90;;;;;;7395372;19;20014;-85
2022/07/31 08:12:44;;;;;;;4.53;2.58;;;22.10;99.90;;;;;;7397013;19;20010;-85
2022/07/31 08:15:10;;;;;;;5.03;3.70;;;22.20;99.90;;;;;;7395208;19;20023;-84
2022/07/31 08:17:36;;;;;;;5.85;4.38;;;22.10;99.90;;;;;;7395214;19;20558;-86
2022/07/31 08:20:03;;;;;;;5.78;3.08;;;22.10;99.90;;;;;;7394451;19;20026;-86
2022/07/31 08:22:29;;;;;;;5.50;3.25;;;22.20;99.90;;;;;;7395193;19;20023;-85
2022/07/31 08:24:55;;;;;;;3.35;2.00;;;22.20;99.90;;;;;;7393185;19;20015;-84
2022/07/31 08:27:24;;;;;;;6.43;4.18;;;22.30;99.90;;;;;;7394772;19;20011;-85
2022/07/31 08:29:52;;;;;;;6.75;4.13;;;22.30;99.90;;;;;;7393607;19;20006;-86
2022/07/31 08:32:19;;;;;;;6.88;4.10;;;22.30;99.90;;;;;;7394485;19;20022;-85
2022/07/31 08:34:45;;;;;;;4.28;3.05;;;22.30;99.90;;;;;;7393386;19;20011;-85
2022/07/31 08:37:12;;;;;;;4.30;2.63;;;22.30;99.90;;;;;;7394607;19;20006;-85
2022/07/31 08:39:39;;;;;;;3.63;2.70;;;22.40;99.90;;;;;;7394335;19;20022;-85
2022/07/31 08:42:09;;;;;;;7.03;4.38;;;22.40;99.90;;;;;;7394319;19;20046;-85
2022/07/31 08:44:35;;;;;;;5.50;3.70;;;22.40;99.90;;;;;;7393929;19;20015;-85
2022/07/31 08:47:05;;;;;;;5.75;3.83;;;22.50;99.90;;;;;;7393973;19;20010;-88
2022/07/31 08:49:35;;;;;;;6.85;4.43;;;22.60;99.90;;;;;;7392715;19;20031;-86
2022/07/31 08:52:01;;;;;;;4.63;3.60;;;22.90;99.90;;;;;;7394112;19;20088;-86
2022/07/31 08:54:28;;;;;;;4.57;3.58;;;23.10;99.90;;;;;;7393353;19;20010;-86
2022/07/31 08:56:54;;;;;;;5.72;3.15;;;23.30;99.90;;;;;;7392133;19;20019;-85
2022/07/31 08:59:21;;;;;;;4.10;2.85;;;23.60;99.90;;;;;;7393788;19;20360;-85
2022/07/31 09:01:48;;;;;;;3.53;3.03;;;23.70;99.90;;;;;;7392241;19;20007;-85
2022/07/31 09:04:14;;;;;;;6.55;2.95;;;23.90;99.90;;;;;;7391959;19;20010;-86
2022/07/31 09:06:39;;;;;;;3.35;2.15;;;24.00;99.90;;;;;;7393603;19;20011;-85
2022/07/31 09:09:05;;;;;;;4.30;2.17;;;24.00;99.90;;;;;;7393841;19;20021;-86
2022/07/31 09:11:32;;;;;;;5.75;4.07;;;24.10;99.90;;;;;;7392362;19;20006;-86
2022/07/31 09:14:03;;;;;;;6.95;4.15;;;24.10;99.90;;;;;;7393451;19;20006;-85
2022/07/31 09:16:30;;;;;;;7.80;5.13;;;24.10;99.90;;;;;;7393696;19;20348;-85
2022/07/31 09:19:04;;;;;;;6.18;3.30;;;24.10;99.90;;;;;;7393002;19;20304;-86
2022/07/31 09:21:41;;;;;;;5.60;3.80;;;24.00;99.90;;;;;;7393051;19;20006;-86
2022/07/31 09:24:09;;;;;;;4.72;3.03;;;24.10;99.90;;;;;;7392784;19;20082;-85
2022/07/31 09:26:36;;;;;;;2.38;2.05;;;24.10;99.90;;;;;;7391432;19;20039;-86
2022/07/31 09:29:07;;;;;;;3.08;2.30;;;23.90;99.90;;;;;;7391409;19;20028;-85
2022/07/31 09:31:37;;;;;;;8.13;3.70;;;23.90;99.90;;;;;;7393003;19;20078;-86
2022/07/31 09:34:04;;;;;;;3.58;2.85;;;23.80;99.90;;;;;;7391457;19;20036;-86
2022/07/31 09:36:31;;;;;;;3.22;2.55;;;23.60;99.90;;;;;;7392559;19;20007;-86
2022/07/31 09:38:58;;;;;;;5.63;2.90;;;23.40;99.90;;;;;;7393326;19;20018;-85
2022/07/31 09:41:24;;;;;;;3.55;2.60;;;23.20;99.90;;;;;;7392724;19;20073;-86
2022/07/31 09:44:01;;;;;;;5.57;4.25;;;23.10;99.90;;;;;;7390877;19;20015;-86
2022/07/31 09:46:42;;;;;;;4.00;2.63;;;22.90;99.90;;;;;;7392321;19;20055;-85
2022/07/31 09:49:08;;;;;;;5.72;4.40;;;22.90;99.90;;;;;;7391051;19;20026;-87
2022/07/31 09:51:41;;;;;;;3.10;2.65;;;22.70;99.90;;;;;;7392771;19;20070;-86
2022/07/31 09:54:18;;;;;;;6.22;4.68;;;22.70;99.90;;;;;;7392966;19;20003;-86
2022/07/31 09:56:45;;;;;;;8.18;6.22;;;22.60;99.90;;;;;;7391625;19;20014;-87
2022/07/31 09:59:11;;;;;;;2.90;2.25;;;22.50;99.90;;;;;;7392147;19;20380;-86
2022/07/31 10:01:37;;;;;;;8.77;6.50;;;22.50;99.90;;;;;;7392040;19;20483;-85
2022/07/31 10:04:05;;;;;;;4.20;2.80;;;22.50;99.90;;;;;;7391695;19;20014;-85
2022/07/31 10:06:33;;;;;;;10.38;7.97;;;22.40;99.90;;;;;;7390710;19;20038;-86
2022/07/31 10:09:00;;;;;;;10.40;6.90;;;22.30;99.90;;;;;;7392681;19;20082;-85
2022/07/31 10:11:27;;;;;;;8.10;5.95;;;22.30;99.90;;;;;;7395268;19;20011;-85
2022/07/31 10:13:58;;;;;;;4.30;3.85;;;22.20;99.90;;;;;;7392312;19;20014;-87
2022/07/31 10:16:27;;;;;;;7.45;5.70;;;22.10;99.90;;;;;;7392152;19;20027;-85
2022/07/31 10:18:58;;;;;;;3.25;2.53;;;22.20;99.90;;;;;;7392360;19;20078;-87
2022/07/31 10:21:35;;;;;;;6.47;5.60;;;22.20;99.90;;;;;;7388222;19;20011;-87
2022/07/31 10:24:04;;;;;;;10.40;6.82;;;22.20;99.90;;;;;;7396204;19;20089;-86
2022/07/31 10:26:31;;;;;;;9.50;8.13;;;22.10;99.90;;;;;;7398583;19;20019;-86
2022/07/31 10:28:58;;;;;;;10.02;8.15;;;22.10;99.90;;;;;;7398689;19;20015;-85
2022/07/31 10:31:24;;;;;;;5.95;4.22;;;22.00;99.90;;;;;;7398946;19;20011;-86
2022/07/31 10:33:51;;;;;;;8.35;7.15;;;21.90;99.90;;;;;;7398606;19;20048;-84
2022/07/31 10:36:24;;;;;;;6.78;5.15;;;21.80;99.90;;;;;;7398943;19;20010;-86
2022/07/31 10:39:09;;;;;;;7.10;5.50;;;21.80;99.90;;;;;;7398227;19;20039;-85
2022/07/31 10:41:35;;;;;;;11.88;9.13;;;21.70;99.90;;;;;;7398500;19;20010;-87
2022/07/31 10:44:26;;;;;;;8.80;7.75;;;21.70;99.90;;;;;;7395487;19;20511;-85
2022/07/31 10:46:52;;;;;;;9.75;8.60;;;21.70;99.90;;;;;;7397876;19;20018;-85
2022/07/31 10:49:18;;;;;;;8.98;6.60;;;21.60;99.90;;;;;;7397909;19;20022;-86
2022/07/31 10:51:50;;;;;;;12.10;8.07;;;21.70;99.90;;;;;;7396296;19;20037;-86
2022/07/31 10:54:16;;;;;;;6.00;3.93;;;21.80;99.90;;;;;;7397821;19;20034;-86
2022/07/31 10:56:44;;;;;;;14.05;12.00;;;21.90;99.90;;;;;;7397405;19;20019;-85
2022/07/31 10:59:11;;;;;;;14.75;10.98;;;22.00;99.90;;;;;;7398049;19;20017;-86
2022/07/31 11:01:50;;;;;;;9.35;7.85;;;22.00;99.90;;;;;;7397342;19;20014;-86
2022/07/31 11:04:27;;;;;;;7.13;5.82;;;22.00;99.90;;;;;;7396880;19;20007;-86
2022/07/31 11:06:53;;;;;;;8.70;7.75;;;21.90;99.90;;;;;;7397083;19;20010;-86
2022/07/31 11:09:24;;;;;;;11.13;8.40;;;22.00;99.90;;;;;;7397545;19;20095;-85
2022/07/31 11:11:50;;;;;;;13.68;12.27;;;21.90;99.90;;;;;;7400220;19;20018;-86
2022/07/31 11:14:16;;;;;;;9.00;7.97;;;21.90;99.90;;;;;;7397053;19;20014;-85
2022/07/31 11:17:00;;;;;;;12.45;11.15;;;21.90;99.90;;;;;;7395622;19;20365;-87
2022/07/31 11:19:37;;;;;;;10.35;8.57;;;21.90;99.90;;;;;;7395125;19;20430;-86
2022/07/31 11:22:14;;;;;;;8.98;7.57;;;21.80;99.90;;;;;;7397111;19;20353;-85
2022/07/31 11:24:41;;;;;;;10.23;8.70;;;21.80;99.90;;;;;;7395197;19;20010;-84
2022/07/31 11:27:06;;;;;;;4.90;4.40;;;21.70;99.90;;;;;;7396933;19;20010;-84
2022/07/31 11:29:35;;;;;;;7.72;6.95;;;21.70;99.90;;;;;;7396591;19;20372;-86
2022/07/31 11:32:03;;;;;;;7.93;7.07;;;21.80;99.90;;;;;;7396761;19;20852;-85
2022/07/31 11:34:30;;;;;;;7.90;5.80;;;21.80;99.90;;;;;;7396753;19;20018;-85
2022/07/31 11:36:57;;;;;;;11.75;10.55;;;21.70;99.90;;;;;;7394783;19;20462;-85
2022/07/31 11:39:26;;;;;;;9.50;8.52;;;21.70;99.90;;;;;;7395625;19;20007;-84
2022/07/31 11:41:53;;;;;;;10.80;9.70;;;21.70;99.90;;;;;;7396413;19;20322;-84
2022/07/31 11:44:21;;;;;;;12.38;10.23;;;21.70;99.90;;;;;;7396071;19;20365;-85
2022/07/31 11:46:49;;;;;;;12.88;11.38;;;21.70;99.90;;;;;;7396069;19;20351;-84
2022/07/31 11:49:22;;;;;;;9.98;8.93;;;21.60;99.90;;;;;;7396536;19;20352;-84
2022/07/31 11:51:48;;;;;;;10.80;9.55;;;21.60;99.90;;;;;;7396329;19;20014;-84
2022/07/31 11:54:24;;;;;;;11.68;9.60;;;21.60;99.90;;;;;;7394340;19;20038;-84
2022/07/31 11:56:53;;;;;;;12.07;10.23;;;21.50;99.90;;;;;;7395576;19;20011;-84
2022/07/31 11:59:37;;;;;;;4.88;3.92;;;21.60;99.90;;;;;;7396047;19;20370;-86
2022/07/31 12:02:03;;;;;;;;;;;21.50;99.90;;;;;;7396119;19;20017;-84
2022/07/31 12:04:31;;;;;;;9.85;8.32;;;21.50;99.90;;;;;;7395050;19;19920;-84
2022/07/31 12:06:58;;;;;;;10.90;9.80;;;21.50;99.90;;;;;;7395438;19;20003;-84
2022/07/31 12:09:24;;;;;;;10.40;6.18;;;21.40;99.90;;;;;;7395969;19;20022;-85
2022/07/31 12:11:50;;;;;;;8.65;7.72;;;21.30;99.90;;;;;;7397835;19;20007;-85
2022/07/31 12:14:33;;;;;;;8.13;5.75;;;21.30;99.90;;;;;;7395412;19;20027;-85
2022/07/31 12:17:00;;;;;;;15.00;12.55;;;21.30;99.90;;;;;;7395811;19;20034;-85
2022/07/31 12:19:31;;;;;;;9.00;8.07;;;21.30;99.90;;;;;;7395045;19;20014;-85
2022/07/31 12:21:58;;;;;;;10.93;9.05;;;21.40;99.90;;;;;;7394989;19;20006;-85
2022/07/31 12:24:25;;;;;;;11.70;10.57;;;21.40;99.90;;;;;;7393850;19;20019;-85
2022/07/31 12:26:58;;;;;;;9.38;8.45;;;21.40;99.90;;;;;;7394804;19;20014;-86
2022/07/31 12:29:32;;;;;;;14.85;11.57;;;21.40;99.90;;;;;;7394648;19;20021;-86
2022/07/31 12:31:59;;;;;;;10.30;9.18;;;21.30;99.90;;;;;;7394502;19;20015;-84
2022/07/31 12:34:25;;;;;;;3.00;2.70;;;21.30;99.90;;;;;;7394804;19;20031;-85
2022/07/31 12:37:05;;;;;;;10.35;9.10;;;21.30;99.90;;;;;;7394624;19;20011;-86
2022/07/31 12:39:35;;;;;;;11.63;9.00;;;21.20;99.90;;;;;;7394044;19;20074;-85
2022/07/31 12:42:02;;;;;;;11.90;10.82;;;21.20;99.90;;;;;;7394032;19;20022;-85
2022/07/31 12:44:28;;;;;;;8.90;7.15;;;21.20;99.90;;;;;;7393396;19;20010;-84
2022/07/31 12:46:54;;;;;;;6.50;5.82;;;21.10;99.90;;;;;;7391548;19;20007;-86
2022/07/31 12:49:20;;;;;;;14.75;12.32;;;21.00;99.90;;;;;;7392258;19;20013;-84